Time;durP1;ratioP1;P1;durP2;ratioP2;P2;SDS_P1;SDS_P2;PMS_P1;PMS_P2;Temp;Humidity;BMP_temperature;BMP_pressure;BME280_temperature;BME280_humidity;BME280_pressure;Samples;Min_cycle;Max_cycle;Signal;HPM_P1;HPM_P2
2021/05/07 00:02:22;;;;;;;8.73;7.03;;;7.30;99.90;;;;;;5068506;28;20208;-66
2021/05/07 00:04:48;;;;;;;8.87;7.20;;;7.30;99.90;;;;;;5069148;28;20196;-66
2021/05/07 00:07:13;;;;;;;8.50;7.60;;;7.30;99.90;;;;;;5071944;28;20599;-67
2021/05/07 00:09:39;;;;;;;9.40;8.37;;;7.30;99.90;;;;;;5075540;28;20722;-67
2021/05/07 00:12:08;;;;;;;10.53;7.97;;;7.30;99.90;;;;;;5075253;28;20197;-66
2021/05/07 00:14:33;;;;;;;9.33;7.37;;;7.20;99.90;;;;;;5075194;28;20213;-66
2021/05/07 00:16:59;;;;;;;8.37;7.47;;;7.20;99.90;;;;;;5071363;28;21209;-65
2021/05/07 00:19:25;;;;;;;8.00;7.10;;;7.20;99.90;;;;;;5070169;28;20193;-66
2021/05/07 00:21:51;;;;;;;8.10;7.03;;;7.20;99.90;;;;;;5062791;28;20493;-66
2021/05/07 00:24:16;;;;;;;8.30;6.90;;;7.20;99.90;;;;;;5072356;28;20537;-66
2021/05/07 00:26:42;;;;;;;10.20;7.40;;;7.20;99.90;;;;;;5070955;28;20187;-66
2021/05/07 00:29:08;;;;;;;10.30;6.70;;;7.20;99.90;;;;;;5086125;28;20180;-66
2021/05/07 00:31:33;;;;;;;9.30;7.80;;;7.20;99.90;;;;;;5071418;28;22675;-66
2021/05/07 00:33:59;;;;;;;9.07;7.63;;;7.20;99.90;;;;;;5068858;28;20449;-66
2021/05/07 00:36:24;;;;;;;8.63;6.90;;;7.20;99.90;;;;;;5066175;28;20271;-66
2021/05/07 00:38:50;;;;;;;9.37;7.60;;;7.20;99.90;;;;;;5069061;28;20190;-66
2021/05/07 00:41:16;;;;;;;9.20;7.80;;;7.20;99.90;;;;;;5069421;28;20216;-66
2021/05/07 00:43:41;;;;;;;10.13;7.90;;;7.10;99.90;;;;;;5072199;28;20259;-66
2021/05/07 00:46:07;;;;;;;8.30;7.50;;;7.20;99.90;;;;;;5079844;28;20804;-66
2021/05/07 00:48:33;;;;;;;10.10;7.87;;;7.10;99.90;;;;;;5077562;28;20243;-66
2021/05/07 00:50:59;;;;;;;8.80;7.70;;;7.10;99.90;;;;;;5070268;28;20206;-65
2021/05/07 00:53:28;;;;;;;9.10;8.10;;;7.10;99.90;;;;;;5068451;28;21011;-66
2021/05/07 00:55:55;;;;;;;10.50;8.17;;;7.10;99.90;;;;;;5068964;28;20516;-65
2021/05/07 00:58:21;;;;;;;9.10;7.75;;;7.10;99.90;;;;;;5069745;28;20448;-66
2021/05/07 01:00:52;;;;;;;11.10;8.55;;;7.10;99.90;;;;;;5066066;28;20231;-66
2021/05/07 01:03:17;;;;;;;8.98;7.25;;;7.10;99.90;;;;;;5069377;28;20192;-67
2021/05/07 01:05:43;;;;;;;9.43;8.30;;;7.10;99.90;;;;;;5070252;28;20195;-66
2021/05/07 01:08:08;;;;;;;11.40;8.90;;;7.20;99.90;;;;;;5072210;28;20229;-65
2021/05/07 01:10:35;;;;;;;9.70;7.77;;;7.20;99.90;;;;;;5070801;28;20188;-66
2021/05/07 01:13:00;;;;;;;10.60;8.20;;;7.20;99.90;;;;;;5069807;28;20200;-66
2021/05/07 01:15:27;;;;;;;10.60;8.70;;;7.20;99.90;;;;;;5072277;28;20420;-66
2021/05/07 01:17:56;;;;;;;8.97;8.03;;;7.20;99.90;;;;;;5070398;28;20575;-66
2021/05/07 01:20:29;;;;;;;9.10;8.10;;;7.20;99.90;;;;;;5071006;28;20463;-66
2021/05/07 01:22:57;;;;;;;10.90;8.43;;;7.20;99.90;;;;;;5070752;28;20526;-66
2021/05/07 01:25:27;;;;;;;9.73;8.50;;;7.20;99.90;;;;;;5071295;28;20505;-66
2021/05/07 01:27:58;;;;;;;12.20;8.93;;;7.20;99.90;;;;;;5068109;28;20434;-67
2021/05/07 01:30:29;;;;;;;11.90;8.43;;;7.20;99.90;;;;;;5070559;28;20429;-67
2021/05/07 01:32:57;;;;;;;9.13;8.13;;;7.30;99.90;;;;;;5070459;28;20447;-67
2021/05/07 01:35:22;;;;;;;9.83;7.73;;;7.30;99.90;;;;;;5072107;28;20422;-66
2021/05/07 01:37:50;;;;;;;11.17;7.80;;;7.30;99.90;;;;;;5070761;28;20443;-66
2021/05/07 01:40:21;;;;;;;8.70;7.30;;;7.30;99.90;;;;;;5072019;28;20176;-66
2021/05/07 01:42:48;;;;;;;8.33;6.77;;;7.30;99.90;;;;;;5064568;28;20515;-66
2021/05/07 01:45:16;;;;;;;9.03;6.73;;;7.20;99.90;;;;;;5071856;28;20417;-66
2021/05/07 01:47:43;;;;;;;7.53;6.20;;;7.20;99.90;;;;;;5069781;28;20959;-66
2021/05/07 01:50:11;;;;;;;7.80;6.57;;;7.20;99.90;;;;;;5056376;28;20415;-66
2021/05/07 01:52:37;;;;;;;8.83;7.50;;;7.20;99.90;;;;;;5071318;28;20516;-66
2021/05/07 01:55:09;;;;;;;8.73;7.00;;;7.10;99.90;;;;;;5074861;28;20610;-67
2021/05/07 01:57:36;;;;;;;9.43;7.97;;;7.10;99.90;;;;;;5051544;28;20170;-66
2021/05/07 02:00:11;;;;;;;8.83;7.73;;;7.10;99.90;;;;;;5071427;28;20184;-65
2021/05/07 02:02:38;;;;;;;10.33;7.80;;;7.10;99.90;;;;;;5069964;28;20476;-67
2021/05/07 02:05:08;;;;;;;8.07;6.47;;;7.10;99.90;;;;;;5069733;28;20927;-66
2021/05/07 02:07:34;;;;;;;9.77;7.23;;;7.00;99.90;;;;;;5071146;28;20454;-66
2021/05/07 02:09:59;;;;;;;10.83;7.13;;;7.00;99.90;;;;;;5071169;28;20498;-67
2021/05/07 02:12:26;;;;;;;6.90;5.97;;;7.00;99.90;;;;;;5071184;28;20220;-66
2021/05/07 02:14:52;;;;;;;7.07;5.67;;;7.10;99.90;;;;;;5068762;28;20346;-67
2021/05/07 02:17:18;;;;;;;6.53;5.93;;;7.20;99.90;;;;;;5071169;28;20426;-66
2021/05/07 02:19:44;;;;;;;6.20;5.60;;;7.10;99.90;;;;;;5070315;28;20453;-67
2021/05/07 02:22:09;;;;;;;6.75;6.10;;;7.10;99.90;;;;;;5070964;28;20253;-66
2021/05/07 02:24:35;;;;;;;7.50;6.33;;;7.10;99.90;;;;;;5067981;28;20196;-67
2021/05/07 02:27:01;;;;;;;9.13;6.60;;;7.10;99.90;;;;;;5070774;28;20179;-67
2021/05/07 02:29:26;;;;;;;7.13;6.37;;;7.10;99.90;;;;;;5064589;28;20252;-66
2021/05/07 02:31:52;;;;;;;6.20;5.60;;;7.10;99.90;;;;;;5068541;28;20213;-66
2021/05/07 02:34:18;;;;;;;7.33;6.53;;;7.20;99.90;;;;;;5069662;28;20358;-67
2021/05/07 02:36:43;;;;;;;8.40;7.20;;;7.10;99.90;;;;;;5070257;28;20196;-66
2021/05/07 02:39:09;;;;;;;9.70;7.97;;;7.20;99.90;;;;;;5069849;28;20446;-68
2021/05/07 02:41:38;;;;;;;8.10;7.03;;;7.20;99.90;;;;;;5068908;28;20205;-67
2021/05/07 02:44:05;;;;;;;10.07;7.90;;;7.10;99.90;;;;;;5068205;28;20182;-66
2021/05/07 02:46:34;;;;;;;12.07;8.93;;;7.20;99.90;;;;;;5070060;28;20438;-67
2021/05/07 02:49:05;;;;;;;10.23;8.70;;;7.20;99.90;;;;;;5069621;28;20197;-67
2021/05/07 02:51:31;;;;;;;10.53;7.87;;;7.20;99.90;;;;;;5069927;28;20781;-66
2021/05/07 02:53:57;;;;;;;10.87;8.57;;;7.20;99.90;;;;;;5069152;28;20446;-67
2021/05/07 02:56:24;;;;;;;9.27;8.23;;;7.20;99.90;;;;;;5070318;28;20461;-67
2021/05/07 02:58:49;;;;;;;9.83;8.03;;;7.30;99.90;;;;;;5071161;28;20428;-66
2021/05/07 03:01:15;;;;;;;8.50;7.33;;;7.20;99.90;;;;;;5064884;28;20509;-66
2021/05/07 03:03:41;;;;;;;10.83;7.73;;;7.20;99.90;;;;;;5069436;28;20200;-66
2021/05/07 03:06:06;;;;;;;9.67;7.70;;;7.30;99.90;;;;;;5074816;28;20499;-66
2021/05/07 03:08:32;;;;;;;9.93;7.90;;;7.40;99.90;;;;;;5082986;28;20187;-67
2021/05/07 03:10:57;;;;;;;9.03;7.20;;;7.30;99.90;;;;;;5068072;28;20194;-68
2021/05/07 03:13:24;;;;;;;8.60;7.47;;;7.20;99.90;;;;;;5069348;28;20188;-67
2021/05/07 03:15:51;;;;;;;9.73;7.50;;;7.20;99.90;;;;;;5069344;28;20914;-68
2021/05/07 03:18:20;;;;;;;8.60;7.72;;;7.20;99.90;;;;;;5068871;28;20241;-67
2021/05/07 03:20:47;;;;;;;9.40;7.70;;;7.20;99.90;;;;;;5067358;28;20179;-66
2021/05/07 03:23:13;;;;;;;7.70;6.53;;;7.20;99.90;;;;;;5069127;28;20445;-66
2021/05/07 03:25:39;;;;;;;8.23;6.35;;;7.20;99.90;;;;;;5070060;28;20441;-67
2021/05/07 03:28:06;;;;;;;7.17;5.97;;;7.20;99.90;;;;;;5068557;28;20205;-66
2021/05/07 03:30:33;;;;;;;8.50;7.00;;;7.20;99.90;;;;;;5053793;28;20426;-66
2021/05/07 03:32:59;;;;;;;8.40;7.00;;;7.20;99.90;;;;;;5054518;28;20471;-66
2021/05/07 03:35:25;;;;;;;7.97;7.18;;;7.10;99.90;;;;;;5069329;28;21021;-65
2021/05/07 03:37:50;;;;;;;7.83;6.30;;;7.10;99.90;;;;;;5068689;28;20266;-64
2021/05/07 03:40:16;;;;;;;7.83;6.90;;;7.10;99.90;;;;;;5067735;28;20223;-65
2021/05/07 03:42:44;;;;;;;8.27;6.85;;;7.10;99.90;;;;;;5067587;28;21362;-66
2021/05/07 03:45:11;;;;;;;7.78;6.90;;;7.10;99.90;;;;;;5069454;28;20174;-66
2021/05/07 03:47:37;;;;;;;9.48;7.35;;;7.10;99.90;;;;;;5068157;28;20187;-65
2021/05/07 03:50:04;;;;;;;7.47;6.57;;;7.10;99.90;;;;;;5068528;28;20641;-66
2021/05/07 03:52:29;;;;;;;7.93;6.60;;;7.10;99.90;;;;;;5065306;28;20184;-66
2021/05/07 03:54:55;;;;;;;6.87;6.20;;;7.00;99.90;;;;;;5069256;28;20185;-67
2021/05/07 03:57:22;;;;;;;7.47;6.63;;;7.00;99.90;;;;;;5068008;28;20193;-67
2021/05/07 03:59:48;;;;;;;7.50;6.30;;;7.00;99.90;;;;;;5079139;28;20192;-66
2021/05/07 04:02:14;;;;;;;6.50;5.00;;;7.00;99.90;;;;;;5071637;28;20314;-68
2021/05/07 04:04:41;;;;;;;5.93;5.03;;;7.00;99.90;;;;;;5079794;28;20284;-68
2021/05/07 04:07:07;;;;;;;6.55;5.45;;;7.00;99.90;;;;;;5067055;28;20293;-68
2021/05/07 04:09:36;;;;;;;5.80;5.00;;;7.00;99.90;;;;;;5069024;28;20759;-68
2021/05/07 04:12:23;;;;;;;6.55;5.85;;;6.90;99.90;;;;;;5068200;28;20186;-68
2021/05/07 04:14:49;;;;;;;7.37;6.00;;;7.00;99.90;;;;;;5068387;28;20185;-68
2021/05/07 04:17:15;;;;;;;6.70;6.00;;;6.90;99.90;;;;;;5071479;28;20455;-69
2021/05/07 04:19:40;;;;;;;6.83;6.13;;;6.90;99.90;;;;;;5068680;28;20201;-67
2021/05/07 04:22:06;;;;;;;8.80;6.60;;;6.90;99.90;;;;;;5072327;28;20477;-68
2021/05/07 04:24:32;;;;;;;8.27;6.80;;;6.90;99.90;;;;;;5074404;28;20344;-67
2021/05/07 04:26:57;;;;;;;6.97;6.10;;;6.90;99.90;;;;;;5069539;28;20181;-68
2021/05/07 04:29:25;;;;;;;8.03;7.30;;;7.00;99.90;;;;;;5070484;28;20591;-67
2021/05/07 04:31:51;;;;;;;8.50;7.57;;;7.00;99.90;;;;;;5062146;28;20189;-68
2021/05/07 04:34:16;;;;;;;9.80;8.07;;;7.00;99.90;;;;;;5058617;28;20448;-67
2021/05/07 04:36:42;;;;;;;8.27;7.37;;;7.10;99.90;;;;;;5063945;28;20190;-67
2021/05/07 04:39:08;;;;;;;9.03;7.33;;;7.10;99.90;;;;;;5074707;28;20575;-66
2021/05/07 04:41:34;;;;;;;9.60;7.60;;;7.10;99.90;;;;;;5067574;28;20201;-69
2021/05/07 04:44:00;;;;;;;8.60;7.18;;;7.10;99.90;;;;;;5074082;28;20494;-69
2021/05/07 04:46:26;;;;;;;9.70;8.00;;;7.10;99.90;;;;;;5068843;28;20191;-69
2021/05/07 04:48:52;;;;;;;8.93;7.43;;;7.20;99.90;;;;;;5066348;28;20189;-70
2021/05/07 04:51:17;;;;;;;10.40;8.23;;;7.20;99.90;;;;;;5083768;28;20456;-70
2021/05/07 04:53:43;;;;;;;10.80;7.73;;;7.20;99.90;;;;;;5067370;28;20183;-70
2021/05/07 04:56:08;;;;;;;12.30;8.60;;;7.20;99.90;;;;;;5079142;28;20195;-69
2021/05/07 04:58:34;;;;;;;10.33;7.80;;;7.20;99.90;;;;;;5084410;28;20204;-70
2021/05/07 05:01:00;;;;;;;10.37;7.80;;;7.20;99.90;;;;;;5066090;28;20242;-67
2021/05/07 05:03:25;;;;;;;9.37;7.77;;;7.10;99.90;;;;;;5071939;28;20201;-70
2021/05/07 05:05:51;;;;;;;8.87;7.70;;;7.20;99.90;;;;;;5078450;28;20187;-70
2021/05/07 05:08:21;;;;;;;10.40;8.20;;;7.20;99.90;;;;;;5072897;28;20464;-70
2021/05/07 05:10:47;;;;;;;11.87;7.80;;;7.30;99.90;;;;;;5085423;28;20546;-70
2021/05/07 05:13:12;;;;;;;11.67;8.80;;;7.30;99.90;;;;;;5086920;28;20420;-70
2021/05/07 05:15:38;;;;;;;10.30;8.17;;;7.30;99.90;;;;;;5074228;28;20184;-68
2021/05/07 05:18:03;;;;;;;10.37;8.50;;;7.30;99.90;;;;;;5071990;28;20186;-70
2021/05/07 05:20:29;;;;;;;9.67;7.77;;;7.40;99.90;;;;;;5091274;28;20624;-68
2021/05/07 05:22:54;;;;;;;11.80;8.40;;;7.40;99.90;;;;;;5074150;28;20223;-71
2021/05/07 05:25:20;;;;;;;9.87;8.03;;;7.40;99.90;;;;;;5090965;28;20190;-70
2021/05/07 05:27:46;;;;;;;8.53;7.20;;;7.50;99.90;;;;;;5078145;28;20175;-71
2021/05/07 05:30:12;;;;;;;8.30;6.93;;;7.50;99.90;;;;;;5076155;28;20195;-66
2021/05/07 05:32:38;;;;;;;8.57;7.07;;;7.50;99.90;;;;;;5089582;28;20923;-71
2021/05/07 05:35:07;;;;;;;8.77;6.97;;;7.50;99.90;;;;;;5071999;28;20528;-71
2021/05/07 05:37:32;;;;;;;8.40;6.50;;;7.50;99.90;;;;;;5092070;28;20203;-70
2021/05/07 05:39:58;;;;;;;7.97;7.10;;;7.50;99.90;;;;;;5088084;28;20496;-70
2021/05/07 05:42:23;;;;;;;7.70;6.10;;;7.50;99.90;;;;;;5074020;28;20211;-70
2021/05/07 05:44:49;;;;;;;8.60;6.73;;;7.50;99.10;;;;;;5070831;28;20854;-70
2021/05/07 05:47:14;;;;;;;7.07;5.97;;;7.50;97.20;;;;;;5071866;28;20188;-71
2021/05/07 05:49:40;;;;;;;8.20;6.63;;;7.60;95.00;;;;;;5070741;28;20289;-71
2021/05/07 05:52:06;;;;;;;9.80;6.90;;;7.60;91.10;;;;;;5071521;28;20211;-71
2021/05/07 05:54:31;;;;;;;8.67;7.30;;;7.60;92.80;;;;;;5070427;28;20181;-71
2021/05/07 05:56:57;;;;;;;7.10;6.23;;;7.50;83.80;;;;;;5067287;28;20198;-73
2021/05/07 05:59:22;;;;;;;9.20;6.63;;;7.60;90.60;;;;;;5064505;28;20230;-74
2021/05/07 06:01:48;;;;;;;8.37;6.80;;;7.60;91.00;;;;;;5074126;28;20228;-74
2021/05/07 06:04:13;;;;;;;7.40;6.63;;;7.60;89.00;;;;;;5071565;28;20189;-74
2021/05/07 06:06:39;;;;;;;8.03;6.97;;;7.60;88.40;;;;;;5079067;28;20262;-70
2021/05/07 06:09:05;;;;;;;10.27;7.30;;;7.50;79.00;;;;;;5071948;28;20192;-77
2021/05/07 06:11:31;;;;;;;9.45;7.47;;;7.60;81.40;;;;;;5074491;28;20181;-75
2021/05/07 06:13:57;;;;;;;8.60;7.27;;;7.60;88.90;;;;;;5076351;28;20193;-75
2021/05/07 06:16:22;;;;;;;8.70;7.33;;;7.50;91.80;;;;;;5077655;28;20186;-72
2021/05/07 06:18:48;;;;;;;10.53;8.57;;;7.50;94.30;;;;;;5079172;28;20234;-75
2021/05/07 06:21:14;;;;;;;9.10;8.10;;;7.50;99.70;;;;;;5070349;28;20665;-65
2021/05/07 06:23:39;;;;;;;9.70;7.70;;;7.50;99.90;;;;;;5086538;28;20857;-71
2021/05/07 06:26:05;;;;;;;9.97;7.80;;;7.60;94.10;;;;;;5086776;28;20201;-75
2021/05/07 06:28:31;;;;;;;10.10;8.40;;;7.50;90.40;;;;;;5088947;28;20446;-72
2021/05/07 06:30:58;;;;;;;9.93;7.10;;;7.50;85.70;;;;;;5088275;28;20178;-76
2021/05/07 06:33:27;;;;;;;9.40;7.63;;;7.50;91.90;;;;;;5080699;28;20450;-67
2021/05/07 06:35:53;;;;;;;9.60;7.33;;;7.50;90.20;;;;;;5078134;28;20437;-73
2021/05/07 06:38:19;;;;;;;10.00;8.33;;;7.50;93.10;;;;;;5083145;28;20421;-71
2021/05/07 06:40:45;;;;;;;10.57;8.33;;;7.60;97.30;;;;;;5072558;28;21191;-65
2021/05/07 06:43:11;;;;;;;9.23;8.17;;;7.60;99.90;;;;;;5071576;28;20215;-71
2021/05/07 06:45:37;;;;;;;9.23;8.25;;;7.60;99.90;;;;;;5074529;28;20657;-71
2021/05/07 06:48:05;;;;;;;9.50;7.97;;;7.60;99.90;;;;;;5082541;28;20181;-71
2021/05/07 06:50:30;;;;;;;8.77;7.23;;;7.70;96.00;;;;;;5072507;28;20935;-70
2021/05/07 06:52:56;;;;;;;10.83;7.03;;;7.70;89.80;;;;;;5068986;28;20413;-69
2021/05/07 06:55:21;;;;;;;7.23;6.43;;;7.70;93.30;;;;;;5071200;28;20188;-69
2021/05/07 06:57:47;;;;;;;7.03;6.00;;;7.70;90.80;;;;;;5084046;28;20190;-75
2021/05/07 07:00:13;;;;;;;7.40;6.40;;;7.70;96.10;;;;;;5079320;28;20712;-71
2021/05/07 07:02:39;;;;;;;6.93;5.57;;;7.70;96.70;;;;;;5071572;28;20211;-70
2021/05/07 07:05:05;;;;;;;6.83;5.80;;;7.80;94.80;;;;;;5086747;28;20739;-70
2021/05/07 07:07:31;;;;;;;5.97;5.03;;;7.90;90.90;;;;;;5082412;28;20259;-73
2021/05/07 07:09:56;;;;;;;6.13;5.53;;;8.00;78.00;;;;;;5074721;28;20512;-70
2021/05/07 07:12:22;;;;;;;6.13;5.53;;;8.00;74.70;;;;;;5083831;28;20190;-75
2021/05/07 07:14:48;;;;;;;6.60;5.80;;;8.00;83.50;;;;;;5082513;28;20604;-75
2021/05/07 07:17:13;;;;;;;5.97;5.37;;;8.00;61.20;;;;;;5085831;28;20301;-71
2021/05/07 07:19:39;;;;;;;5.60;5.00;;;8.10;72.20;;;;;;5081041;28;20618;-73
2021/05/07 07:22:08;;;;;;;5.60;5.03;;;8.20;69.20;;;;;;5079417;28;20261;-71
2021/05/07 07:24:34;;;;;;;5.20;4.70;;;8.20;62.20;;;;;;5073839;28;20639;-75
2021/05/07 07:26:59;;;;;;;4.40;3.97;;;8.30;60.60;;;;;;5072815;28;20422;-74
2021/05/07 07:29:25;;;;;;;4.60;4.20;;;8.30;48.10;;;;;;5081454;28;20176;-75
2021/05/07 07:31:51;;;;;;;5.13;4.27;;;8.40;60.70;;;;;;5078053;28;20196;-71
2021/05/07 07:34:17;;;;;;;4.63;4.13;;;8.40;44.10;;;;;;5074314;28;20423;-75
2021/05/07 07:36:45;;;;;;;4.40;4.00;;;8.50;50.80;;;;;;5070420;28;20453;-72
2021/05/07 07:39:11;;;;;;;4.20;3.80;;;8.40;37.70;;;;;;5075150;28;20429;-71
2021/05/07 07:41:36;;;;;;;4.73;4.30;;;8.40;37.40;;;;;;5069947;28;20457;-71
2021/05/07 07:44:02;;;;;;;4.83;4.40;;;8.40;46.00;;;;;;5066143;28;20495;-72
2021/05/07 07:46:30;;;;;;;5.03;4.53;;;8.50;43.90;;;;;;5074284;28;20582;-69
2021/05/07 07:48:56;;;;;;;4.90;4.40;;;8.70;35.40;;;;;;5079207;28;20433;-68
2021/05/07 07:51:21;;;;;;;5.60;5.00;;;8.80;50.90;;;;;;5075122;28;20534;-71
2021/05/07 07:53:47;;;;;;;5.23;4.73;;;9.00;33.20;;;;;;5066505;28;20185;-69
2021/05/07 07:56:12;;;;;;;7.17;5.17;;;9.20;22.30;;;;;;5069686;28;20250;-68
2021/05/07 07:58:38;;;;;;;5.90;5.10;;;9.30;30.10;;;;;;5072794;28;20174;-69
2021/05/07 08:01:04;;;;;;;5.63;5.07;;;9.60;24.20;;;;;;5081333;28;20730;-66
2021/05/07 08:03:29;;;;;;;6.00;5.50;;;9.80;4.40;;;;;;5081702;28;20468;-66
2021/05/07 08:05:55;;;;;;;5.63;5.03;;;9.80;1.00;;;;;;5082672;28;20663;-70
2021/05/07 08:08:21;;;;;;;6.30;5.73;;;9.90;1.00;;;;;;5082732;28;20187;-70
2021/05/07 08:10:46;;;;;;;6.87;6.27;;;10.00;1.00;;;;;;5074848;28;20177;-68
2021/05/07 08:13:12;;;;;;;8.87;7.97;;;10.00;1.00;;;;;;5079757;28;20198;-70
2021/05/07 08:15:38;;;;;;;8.00;7.20;;;9.80;1.00;;;;;;5087362;28;20183;-70
2021/05/07 08:18:03;;;;;;;7.93;7.20;;;9.70;1.00;;;;;;5073450;28;20185;-70
2021/05/07 08:20:29;;;;;;;8.27;7.47;;;9.50;1.00;;;;;;5089924;28;20650;-69
2021/05/07 08:22:56;;;;;;;8.67;7.77;;;9.40;1.00;;;;;;5088745;28;20683;-68
2021/05/07 08:25:22;;;;;;;8.43;7.33;;;9.40;1.00;;;;;;5077100;28;20584;-68
2021/05/07 08:27:47;;;;;;;8.67;7.80;;;9.40;1.00;;;;;;5077087;28;20486;-68
2021/05/07 08:30:13;;;;;;;8.07;7.30;;;9.40;1.00;;;;;;5087390;28;20185;-69
2021/05/07 08:32:40;;;;;;;7.53;6.83;;;9.40;1.00;;;;;;5079516;28;20184;-68
2021/05/07 08:35:06;;;;;;;7.80;7.10;;;9.40;1.00;;;;;;5090050;28;20919;-69
2021/05/07 08:37:31;;;;;;;8.70;7.90;;;9.40;1.00;;;;;;5078684;28;20893;-69
2021/05/07 08:39:57;;;;;;;7.40;6.70;;;9.30;1.00;;;;;;5073839;28;20438;-68
2021/05/07 08:42:23;;;;;;;7.40;6.70;;;9.40;1.00;;;;;;5084627;28;20204;-68
2021/05/07 08:44:50;;;;;;;6.17;5.57;;;9.60;1.00;;;;;;5088152;28;21153;-67
2021/05/07 08:47:21;;;;;;;6.00;5.50;;;9.80;1.00;;;;;;5083012;28;20182;-65
2021/05/07 08:49:48;;;;;;;6.00;5.50;;;9.90;1.00;;;;;;5067904;28;20411;-67
2021/05/07 08:52:15;;;;;;;5.50;5.03;;;10.00;1.00;;;;;;5072560;28;20940;-68
2021/05/07 08:54:40;;;;;;;5.30;4.90;;;10.30;1.00;;;;;;5072888;28;20431;-67
2021/05/07 08:57:06;;;;;;;5.40;4.90;;;10.50;1.00;;;;;;5071836;28;20403;-68
2021/05/07 08:59:33;;;;;;;5.43;5.03;;;10.70;1.00;;;;;;5071837;28;20659;-68
2021/05/07 09:01:59;;;;;;;5.33;4.93;;;10.80;1.00;;;;;;5071761;28;20694;-68
2021/05/07 09:04:26;;;;;;;5.23;4.83;;;10.70;99.90;;;;;;5071356;28;20741;-67
2021/05/07 09:06:52;;;;;;;4.50;4.20;;;10.60;99.90;;;;;;5071979;28;20407;-68
2021/05/07 09:09:23;;;;;;;4.63;4.33;;;10.60;99.90;;;;;;5070950;28;20780;-68
2021/05/07 09:11:50;;;;;;;4.43;4.13;;;10.70;1.00;;;;;;5071525;28;20410;-68
2021/05/07 09:14:16;;;;;;;4.50;4.20;;;10.70;99.90;;;;;;5071043;28;20900;-68
2021/05/07 09:16:58;;;;;;;4.80;4.50;;;10.80;99.90;;;;;;5070923;28;20510;-69
2021/05/07 09:19:25;;;;;;;4.80;4.50;;;11.00;1.00;;;;;;5074801;28;20212;-67
2021/05/07 09:21:51;;;;;;;5.20;4.20;;;11.00;99.90;;;;;;5089720;28;20516;-68
2021/05/07 09:24:18;;;;;;;4.20;3.90;;;11.10;24.80;;;;;;5091144;28;20415;-69
2021/05/07 09:26:50;;;;;;;5.00;4.60;;;11.10;31.60;;;;;;5074977;28;20438;-68
2021/05/07 09:29:21;;;;;;;4.40;4.00;;;10.90;1.00;;;;;;5078212;28;20430;-68
2021/05/07 09:31:49;;;;;;;4.50;4.20;;;10.90;58.20;;;;;;5075272;28;20505;-67
2021/05/07 09:34:16;;;;;;;4.97;4.30;;;10.70;1.00;;;;;;5089730;28;20821;-69
2021/05/07 09:36:41;;;;;;;7.07;4.20;;;10.60;99.90;;;;;;5075021;28;20818;-68
2021/05/07 09:39:18;;;;;;;5.30;4.90;;;10.60;99.90;;;;;;5078108;28;20481;-68
2021/05/07 09:41:46;;;;;;;5.43;5.03;;;10.50;99.90;;;;;;5088938;28;20548;-68
2021/05/07 09:44:35;;;;;;;6.07;5.57;;;10.20;99.90;;;;;;5070293;28;20816;-69
2021/05/07 09:47:13;;;;;;;6.87;6.37;;;10.20;99.90;;;;;;5089893;28;21132;-66
2021/05/07 09:49:38;;;;;;;5.77;5.37;;;10.10;99.90;;;;;;5076934;28;20419;-68
2021/05/07 09:52:04;;;;;;;5.20;4.90;;;10.20;99.90;;;;;;5078566;28;20427;-68
2021/05/07 09:54:30;;;;;;;3.87;3.47;;;10.40;99.90;;;;;;5081292;28;20199;-69
2021/05/07 09:56:57;;;;;;;2.87;2.67;;;10.60;1.00;;;;;;5075857;28;20415;-68
2021/05/07 09:59:23;;;;;;;3.00;2.60;;;10.80;99.90;;;;;;5087628;28;20366;-67
2021/05/07 10:01:49;;;;;;;4.97;2.83;;;10.90;99.90;;;;;;5087874;28;20493;-68
2021/05/07 10:04:16;;;;;;;3.00;2.80;;;11.30;99.90;;;;;;5080615;28;20866;-68
2021/05/07 10:06:42;;;;;;;2.60;2.50;;;11.70;99.90;;;;;;5072404;28;20432;-68
2021/05/07 10:09:10;;;;;;;2.37;2.20;;;11.80;99.90;;;;;;5076361;28;20439;-67
2021/05/07 10:11:44;;;;;;;2.50;2.30;;;11.90;1.00;;;;;;5069892;28;20435;-67
2021/05/07 10:14:14;;;;;;;2.63;2.53;;;11.70;1.00;;;;;;5065286;28;20443;-68
2021/05/07 10:16:40;;;;;;;2.60;2.40;;;11.70;1.00;;;;;;5068198;28;20419;-69
2021/05/07 10:19:08;;;;;;;2.67;2.37;;;11.40;1.00;;;;;;5068154;28;20446;-68
2021/05/07 10:21:39;;;;;;;2.80;2.40;;;11.10;1.00;;;;;;5074757;28;20662;-69
2021/05/07 10:24:06;;;;;;;2.40;2.30;;;10.70;1.00;;;;;;5069971;28;20418;-68
2021/05/07 10:26:42;;;;;;;2.50;2.40;;;10.70;1.00;;;;;;5073158;28;20436;-68
2021/05/07 10:29:27;;;;;;;2.30;2.20;;;10.80;1.00;;;;;;5066131;28;20831;-68
2021/05/07 10:31:58;;;;;;;2.90;2.70;;;10.60;1.00;;;;;;5069831;28;20431;-69
2021/05/07 10:34:26;;;;;;;2.87;2.67;;;10.40;1.00;;;;;;5076472;28;20477;-69
2021/05/07 10:36:55;;;;;;;2.80;2.70;;;10.20;49.90;;;;;;5075770;28;20440;-68
2021/05/07 10:39:21;;;;;;;2.63;2.53;;;10.10;91.10;;;;;;5051335;28;20482;-68
2021/05/07 10:41:48;;;;;;;3.07;2.70;;;10.10;99.90;;;;;;5054336;28;20495;-66
2021/05/07 10:44:15;;;;;;;2.80;2.60;;;10.10;99.90;;;;;;5056550;28;20547;-67
2021/05/07 10:46:42;;;;;;;3.00;2.80;;;9.90;99.90;;;;;;5067852;28;20740;-68
2021/05/07 10:49:08;;;;;;;3.03;2.83;;;9.70;99.90;;;;;;5067859;28;20419;-68
2021/05/07 10:51:34;;;;;;;3.10;2.90;;;9.80;99.90;;;;;;5067826;28;20443;-66
2021/05/07 10:54:08;;;;;;;3.20;3.00;;;9.90;99.90;;;;;;5066993;28;20428;-68
2021/05/07 10:56:39;;;;;;;3.20;3.00;;;9.90;99.90;;;;;;5064544;28;20421;-67
2021/05/07 10:59:13;;;;;;;3.20;3.00;;;10.00;99.90;;;;;;5051331;28;20496;-68
2021/05/07 11:01:39;;;;;;;3.20;3.00;;;10.10;99.90;;;;;;5060881;28;20478;-66
2021/05/07 11:04:12;;;;;;;4.00;3.60;;;10.00;99.90;;;;;;5068040;28;21094;-68
2021/05/07 11:06:41;;;;;;;3.20;3.00;;;10.10;99.90;;;;;;5067432;28;20515;-66
2021/05/07 11:09:22;;;;;;;3.80;3.60;;;10.10;99.90;;;;;;5067515;28;20973;-68
2021/05/07 11:11:52;;;;;;;3.47;3.17;;;10.00;99.90;;;;;;5064986;28;20933;-67
2021/05/07 11:14:23;;;;;;;3.93;3.63;;;9.90;99.90;;;;;;5068752;28;20446;-67
2021/05/07 11:16:50;;;;;;;3.97;3.77;;;9.90;99.90;;;;;;5068059;28;20900;-66
2021/05/07 11:19:27;;;;;;;4.60;4.20;;;9.80;99.90;;;;;;5071256;28;20426;-67
2021/05/07 11:21:56;;;;;;;5.03;4.17;;;9.90;99.90;;;;;;5071984;28;20804;-68
2021/05/07 11:24:43;;;;;;;4.53;4.13;;;10.20;99.90;;;;;;5073790;28;20530;-68
2021/05/07 11:27:19;;;;;;;4.03;3.70;;;10.50;99.90;;;;;;5059978;28;20434;-66
2021/05/07 11:29:45;;;;;;;4.30;4.00;;;11.30;99.90;;;;;;5071306;28;20435;-67
2021/05/07 11:32:11;;;;;;;4.73;4.20;;;12.30;1.00;;;;;;5068857;28;20440;-67
2021/05/07 11:34:37;;;;;;;4.97;4.57;;;13.40;1.00;;;;;;5069842;28;20182;-67
2021/05/07 11:37:03;;;;;;;4.87;4.47;;;14.60;1.00;;;;;;5065486;28;20523;-67
2021/05/07 11:39:29;;;;;;;4.93;4.63;;;15.30;99.90;;;;;;5075992;28;20209;-69
2021/05/07 11:41:55;;;;;;;5.60;5.20;;;15.20;99.90;;;;;;5072533;28;20885;-67
2021/05/07 11:44:20;;;;;;;5.60;5.20;;;14.60;99.90;;;;;;5083000;28;20309;-71
2021/05/07 11:47:05;;;;;;;5.03;4.70;;;14.00;99.90;;;;;;5073523;28;20183;-70
2021/05/07 11:49:31;;;;;;;5.60;5.20;;;13.30;99.90;;;;;;5075206;28;20185;-69
2021/05/07 11:51:57;;;;;;;5.60;5.20;;;12.50;99.90;;;;;;5085879;28;20423;-69
2021/05/07 11:54:22;;;;;;;5.07;4.67;;;12.20;1.00;;;;;;5073149;28;20454;-72
2021/05/07 11:56:54;;;;;;;5.13;4.73;;;11.60;1.00;;;;;;5085781;28;20199;-72
2021/05/07 11:59:20;;;;;;;4.70;4.30;;;11.30;1.00;;;;;;5076698;28;21025;-71
2021/05/07 12:01:49;;;;;;;4.70;4.30;;;11.10;1.00;;;;;;5085043;28;20484;-71
2021/05/07 12:04:15;;;;;;;5.00;4.50;;;10.90;1.00;;;;;;5068069;28;20431;-72
2021/05/07 12:06:44;;;;;;;5.07;4.67;;;10.70;1.00;;;;;;5068500;28;20444;-71
2021/05/07 12:09:12;;;;;;;5.20;4.80;;;10.80;1.00;;;;;;5068146;28;20545;-67
2021/05/07 12:11:38;;;;;;;5.77;4.90;;;10.80;1.00;;;;;;5071582;28;20212;-73
2021/05/07 12:14:14;;;;;;;5.20;4.80;;;10.90;1.00;;;;;;5068267;28;20532;-73
2021/05/07 12:16:40;;;;;;;5.33;4.93;;;11.20;1.00;;;;;;5067856;28;20973;-72
2021/05/07 12:19:06;;;;;;;6.17;5.67;;;11.50;1.00;;;;;;5067067;28;20447;-71
2021/05/07 12:21:42;;;;;;;5.20;4.80;;;11.80;1.00;;;;;;5068408;28;20451;-66
2021/05/07 12:24:10;;;;;;;5.30;4.90;;;12.20;1.00;;;;;;5067113;28;20437;-65
2021/05/07 12:26:49;;;;;;;5.70;5.30;;;12.90;1.00;;;;;;5068277;28;20406;-71
2021/05/07 12:29:16;;;;;;;6.17;5.67;;;14.30;1.00;;;;;;5062960;28;20964;-73
2021/05/07 12:31:41;;;;;;;7.03;6.40;;;15.10;99.90;;;;;;5068498;28;20407;-67
2021/05/07 12:34:18;;;;;;;5.90;5.50;;;15.10;99.90;;;;;;5067374;28;20548;-73
2021/05/07 12:36:55;;;;;;;5.37;5.07;;;14.70;99.90;;;;;;5068105;28;20659;-73
2021/05/07 12:39:25;;;;;;;5.37;4.97;;;14.70;99.90;;;;;;5064273;28;20447;-73
2021/05/07 12:41:51;;;;;;;6.00;5.50;;;14.50;99.90;;;;;;5068580;28;20473;-73
2021/05/07 12:44:17;;;;;;;5.93;5.43;;;14.10;99.90;;;;;;5065814;28;20816;-73
2021/05/07 12:46:42;;;;;;;6.17;5.67;;;13.90;99.90;;;;;;5066882;28;20438;-73
2021/05/07 12:49:08;;;;;;;6.00;5.50;;;13.80;99.90;;;;;;5067469;28;20188;-67
2021/05/07 12:51:33;;;;;;;6.10;5.70;;;13.30;99.90;;;;;;5081460;28;20193;-73
2021/05/07 12:54:00;;;;;;;6.33;5.83;;;13.20;99.90;;;;;;5072179;28;20192;-72
2021/05/07 12:56:26;;;;;;;6.40;5.80;;;13.00;99.90;;;;;;5081850;28;20268;-73